Time;durP1;ratioP1;P1;durP2;ratioP2;P2;SDS_P1;SDS_P2;PMS_P1;PMS_P2;Temp;Humidity;BMP_temperature;BMP_pressure;BME280_temperature;BME280_humidity;BME280_pressure;Samples;Min_cycle;Max_cycle;Signal;HPM_P1;HPM_P2
2021/10/29 00:01:34;;;;;;;;;15.75;13.00;;;;;14.76;62.49;100567.66;4944256;28;46308;-60
2021/10/29 00:03:59;;;;;;;;;16.25;14.25;;;;;14.71;62.84;100568.06;4944128;28;45232;-59
2021/10/29 00:06:25;;;;;;;;;12.25;12.00;;;;;14.70;62.80;100576.97;4944082;28;45207;-59
2021/10/29 00:08:50;;;;;;;;;17.00;16.00;;;;;14.69;62.80;100577.06;4944353;28;45263;-60
2021/10/29 00:11:16;;;;;;;;;16.00;12.25;;;;;14.67;62.87;100571.91;4944127;28;46082;-59
2021/10/29 00:13:41;;;;;;;;;10.75;10.50;;;;;14.64;63.00;100569.50;4944139;28;45168;-59
2021/10/29 00:16:07;;;;;;;;;14.00;13.75;;;;;14.64;63.13;100571.31;4944280;28;45239;-60
2021/10/29 00:18:32;;;;;;;;;13.50;13.00;;;;;14.62;63.15;100574.09;4944073;28;45200;-59
2021/10/29 00:20:58;;;;;;;;;14.75;14.75;;;;;14.60;63.10;100564.53;4943785;28;46117;-60
2021/10/29 00:23:25;;;;;;;;;14.25;12.25;;;;;14.60;62.96;100567.19;4943909;28;45240;-59
2021/10/29 00:25:50;;;;;;;;;13.75;12.50;;;;;14.59;63.09;100565.50;4944023;28;45323;-59
2021/10/29 00:28:16;;;;;;;;;12.75;12.00;;;;;14.56;63.25;100560.47;4943820;28;45275;-59
2021/10/29 00:30:41;;;;;;;;;13.25;12.50;;;;;14.55;63.39;100559.63;4943298;28;45267;-61
2021/10/29 00:33:07;;;;;;;;;15.00;14.00;;;;;14.55;63.43;100554.31;4943547;28;45473;-60
2021/10/29 00:35:32;;;;;;;;;13.75;11.75;;;;;14.54;63.42;100555.28;4943744;28;45494;-60
2021/10/29 00:37:58;;;;;;;;;21.50;16.50;;;;;14.55;63.16;100553.47;4943791;28;45283;-60
2021/10/29 00:40:23;;;;;;;;;14.00;12.00;;;;;14.51;63.20;100545.75;4943419;28;45258;-60
2021/10/29 00:42:49;;;;;;;;;13.50;13.00;;;;;14.50;63.52;100548.53;4943659;28;45399;-60
2021/10/29 00:45:14;;;;;;;;;14.75;13.00;;;;;14.51;63.31;100547.56;4943999;28;45386;-60
2021/10/29 00:47:40;;;;;;;;;13.75;13.00;;;;;14.48;63.30;100545.16;4943680;28;45516;-60
2021/10/29 00:50:06;;;;;;;;;13.75;13.50;;;;;14.47;63.41;100544.31;4943500;28;46053;-61
2021/10/29 00:52:32;;;;;;;;;13.50;13.00;;;;;14.43;63.44;100544.63;4943436;28;45236;-60
2021/10/29 00:54:59;;;;;;;;;16.50;13.25;;;;;14.38;63.57;100539.72;4943646;28;45422;-60
2021/10/29 00:57:25;;;;;;;;;16.75;14.75;;;;;14.39;63.70;100541.41;4943591;28;45463;-61
2021/10/29 00:59:51;;;;;;;;;12.25;11.75;;;;;14.38;63.76;100522.97;4943451;28;45397;-60
2021/10/29 01:02:17;;;;;;;;;15.00;14.25;;;;;14.37;63.45;100534.50;4943342;28;45270;-60
2021/10/29 01:04:42;;;;;;;;;12.00;10.00;;;;;14.35;63.67;100525.84;4958355;28;45443;-60
2021/10/29 01:07:08;;;;;;;;;16.50;15.00;;;;;14.32;63.88;100524.28;4943385;28;45350;-60
2021/10/29 01:09:34;;;;;;;;;14.50;13.75;;;;;14.31;64.07;100521.75;4943173;28;45345;-60
2021/10/29 01:12:00;;;;;;;;;16.25;14.25;;;;;14.31;63.94;100521.75;4943218;28;45168;-60
2021/10/29 01:14:25;;;;;;;;;15.00;13.00;;;;;14.30;64.30;100518.28;4943575;28;45421;-60
2021/10/29 01:16:51;;;;;;;;;15.25;14.00;;;;;14.27;64.17;100521.16;4943250;28;45229;-61
2021/10/29 01:19:16;;;;;;;;;17.25;13.75;;;;;14.25;64.02;100520.44;4942972;28;45581;-60
2021/10/29 01:21:42;;;;;;;;;20.25;13.00;;;;;14.21;64.08;100511.84;4942985;28;45202;-60
2021/10/29 01:24:08;;;;;;;;;13.50;12.75;;;;;14.19;64.16;100505.84;4943285;28;45240;-60
2021/10/29 01:26:34;;;;;;;;;18.25;12.25;;;;;14.18;64.33;100508.63;4942937;28;45439;-60
2021/10/29 01:29:00;;;;;;;;;16.50;15.00;;;;;14.13;64.25;100506.31;4943047;28;46108;-60
2021/10/29 01:31:26;;;;;;;;;15.25;14.75;;;;;14.14;64.58;100502.72;4942939;28;45285;-60
2021/10/29 01:33:52;;;;;;;;;19.25;16.25;;;;;14.15;64.47;100503.56;4943127;28;45486;-60
2021/10/29 01:36:17;;;;;;;;;14.00;12.00;;;;;14.16;64.28;100508.75;4942654;28;45449;-60
2021/10/29 01:38:45;;;;;;;;;14.50;12.50;;;;;14.16;64.51;100503.44;4942707;28;45262;-60
2021/10/29 01:41:12;;;;;;;;;14.75;12.50;;;;;14.14;64.69;100502.72;4942725;28;45248;-60
2021/10/29 01:43:45;;;;;;;;;15.25;14.25;;;;;14.13;64.44;100503.66;4941574;28;45278;-60
2021/10/29 01:46:12;;;;;;;;;11.25;11.00;;;;;14.13;64.48;100494.88;4942641;28;45228;-60
2021/10/29 01:48:45;;;;;;;;;15.25;12.00;;;;;14.10;64.29;100487.19;4942778;28;45272;-60
2021/10/29 01:51:12;;;;;;;;;13.25;12.00;;;;;14.09;64.54;100483.69;4942485;28;45227;-60
2021/10/29 01:53:37;;;;;;;;;17.00;15.50;;;;;14.08;64.45;100479.38;4942648;28;45268;-60
2021/10/29 01:56:04;;;;;;;;;18.75;14.00;;;;;14.07;64.53;100480.34;4942758;28;45317;-60
2021/10/29 01:58:29;;;;;;;;;12.00;11.50;;;;;14.07;64.45;100477.69;4942553;28;45362;-61
2021/10/29 02:00:55;;;;;;;;;15.25;12.50;;;;;14.03;64.51;100473.56;4942631;28;45323;-61
2021/10/29 02:03:20;;;;;;;;;12.25;11.25;;;;;14.02;64.48;100479.84;4942711;28;45306;-60
2021/10/29 02:05:46;;;;;;;;;17.50;13.75;;;;;14.02;64.56;100469.25;4942367;28;45561;-60
2021/10/29 02:08:11;;;;;;;;;13.75;12.50;;;;;13.99;64.63;100469.50;4942297;28;46092;-61
2021/10/29 02:10:37;;;;;;;;;14.25;11.00;;;;;13.95;64.60;100460.94;4942375;28;45399;-60
2021/10/29 02:13:03;;;;;;;;;15.50;11.75;;;;;13.94;64.80;100464.53;4942737;28;45273;-60
2021/10/29 02:15:29;;;;;;;;;15.00;14.25;;;;;13.94;64.59;100466.34;4942410;28;45449;-59
2021/10/29 02:17:55;;;;;;;;;11.50;11.50;;;;;13.96;64.60;100461.78;4942369;28;45426;-60
2021/10/29 02:20:20;;;;;;;;;12.25;11.25;;;;;13.97;64.60;100448.41;4942010;28;45254;-60
2021/10/29 02:22:46;;;;;;;;;13.00;12.25;;;;;13.99;64.76;100450.13;4942485;28;45296;-59
2021/10/29 02:25:12;;;;;;;;;12.00;11.25;;;;;13.97;64.91;100447.56;4942337;28;45408;-60
2021/10/29 02:27:37;;;;;;;;;12.25;10.25;;;;;13.95;64.73;100442.38;4942214;28;46186;-60
2021/10/29 02:30:03;;;;;;;;;17.50;11.25;;;;;13.95;64.75;100441.56;4942274;28;45388;-60
2021/10/29 02:32:29;;;;;;;;;13.50;11.00;;;;;13.93;64.62;100435.53;4942460;28;45227;-60
2021/10/29 02:34:54;;;;;;;;;19.25;13.00;;;;;13.91;64.62;100438.31;4942119;28;45489;-60
2021/10/29 02:37:20;;;;;;;;;10.75;10.25;;;;;13.87;64.66;100436.84;4942099;28;45979;-60
2021/10/29 02:39:45;;;;;;;;;13.50;11.00;;;;;13.84;64.77;100431.81;4941944;28;45383;-60
2021/10/29 02:42:11;;;;;;;;;12.25;10.50;;;;;13.82;64.55;100438.16;4942029;28;45348;-60
2021/10/29 02:44:36;;;;;;;;;12.00;11.25;;;;;13.82;64.45;100427.56;4942125;28;45634;-60
2021/10/29 02:47:02;;;;;;;;;13.25;11.50;;;;;13.82;64.60;100428.41;4941884;28;45935;-60
2021/10/29 02:49:28;;;;;;;;;10.75;10.50;;;;;13.78;64.39;100426.97;4941788;28;45630;-60
2021/10/29 02:51:53;;;;;;;;;10.25;9.25;;;;;13.78;64.34;100413.75;4942241;28;45434;-61
2021/10/29 02:54:19;;;;;;;;;9.00;5.00;;;;;13.75;64.50;100416.63;4942470;28;45588;-60
2021/10/29 02:56:44;;;;;;;;;12.00;10.50;;;;;13.75;64.26;100416.63;4945267;28;46058;-60
2021/10/29 02:59:10;;;;;;;;;11.75;11.00;;;;;13.74;64.43;100414.94;4945092;28;45262;-60
2021/10/29 03:01:37;;;;;;;;;13.50;10.25;;;;;13.73;64.23;100402.66;4945503;28;45227;-60
2021/10/29 03:04:03;;;;;;;;;11.25;10.00;;;;;13.73;64.58;100399.16;4945060;28;45461;-60
2021/10/29 03:06:28;;;;;;;;;11.50;10.50;;;;;13.69;64.24;100409.16;4945079;28;46032;-60
2021/10/29 03:08:54;;;;;;;;;15.25;9.50;;;;;13.69;64.20;100393.28;4944999;28;45272;-60
2021/10/29 03:11:19;;;;;;;;;11.75;9.75;;;;;13.68;64.06;100392.44;4945280;28;45395;-60
2021/10/29 03:13:45;;;;;;;;;10.50;10.00;;;;;13.68;64.03;100392.44;4944941;28;45271;-60
2021/10/29 03:16:10;;;;;;;;;13.50;10.00;;;;;13.67;64.17;100388.13;4944991;28;46181;-60
2021/10/29 03:18:36;;;;;;;;;14.25;7.50;;;;;13.66;64.31;100385.56;4944852;28;45382;-60
2021/10/29 03:21:01;;;;;;;;;12.00;10.25;;;;;13.65;64.06;100375.94;4944859;28;45323;-60
2021/10/29 03:23:27;;;;;;;;;11.00;11.00;;;;;13.63;64.15;100381.34;4944900;28;45323;-60
2021/10/29 03:25:52;;;;;;;;;10.00;10.00;;;;;13.63;64.17;100380.53;4944112;28;45748;-60
2021/10/29 03:28:18;;;;;;;;;10.75;10.00;;;;;13.62;63.92;100370.91;4944102;28;45363;-60
2021/10/29 03:30:43;;;;;;;;;12.75;11.00;;;;;13.59;64.29;100363.22;4944994;28;45242;-60
2021/10/29 03:33:09;;;;;;;;;10.50;8.75;;;;;13.58;64.16;100367.63;4944876;28;45445;-60
2021/10/29 03:35:36;;;;;;;;;15.25;10.50;;;;;13.59;64.24;100366.69;4944616;28;46167;-60
2021/10/29 03:40:52;;;;;;;;;12.50;11.75;;;;;13.61;63.97;100354.19;4944546;28;45452;-60
2021/10/29 03:43:30;;;;;;;;;10.75;10.00;;;;;13.63;64.08;100354.06;4944703;28;45276;-59
2021/10/29 03:46:05;;;;;;;;;9.00;9.00;;;;;13.62;63.84;100347.91;4944710;28;45218;-59
2021/10/29 03:48:44;;;;;;;;;11.50;8.25;;;;;13.62;64.10;100358.50;4936001;28;45240;-60
2021/10/29 03:54:19;;;;;;;;;11.75;10.25;;;;;13.61;63.96;100351.53;4944601;28;45241;-60
2021/10/29 03:56:45;;;;;;;;;17.75;14.25;;;;;13.58;64.16;100343.81;4944129;28;45938;-60
2021/10/29 03:59:11;;;;;;;;;11.25;11.00;;;;;13.58;64.12;100343.81;4944263;28;45256;-60
2021/10/29 04:01:38;;;;;;;;;12.00;10.75;;;;;13.59;64.23;100342.03;4944481;28;45188;-60
2021/10/29 04:04:04;;;;;;;;;14.25;10.75;;;;;13.60;64.21;100338.41;4944006;28;45671;-60
2021/10/29 04:06:29;;;;;;;;;10.75;9.00;;;;;13.59;64.00;100336.75;4942883;28;45556;-60
2021/10/29 04:08:55;;;;;;;;;10.25;9.75;;;;;13.61;64.05;100340.94;4944086;28;45345;-60
2021/10/29 04:11:23;;;;;;;;;11.25;9.25;;;;;13.63;63.99;100330.22;4944373;28;45310;-59
2021/10/29 04:13:49;;;;;;;;;8.75;7.00;;;;;13.64;64.09;100319.53;4944323;28;45668;-59
2021/10/29 04:16:15;;;;;;;;;12.75;9.25;;;;;13.64;64.25;100313.38;4944068;28;45347;-59
2021/10/29 04:18:40;;;;;;;;;11.50;9.50;;;;;13.66;64.10;100317.59;4943995;28;45434;-59
2021/10/29 04:21:06;;;;;;;;;11.25;9.75;;;;;13.66;64.22;100311.44;4944152;28;45418;-60
2021/10/29 04:23:33;;;;;;;;;10.00;7.00;;;;;13.63;64.24;100312.53;4944058;28;45220;-60
2021/10/29 04:25:59;;;;;;;;;21.00;12.75;;;;;13.64;64.19;100311.56;4943879;28;45981;-60
2021/10/29 04:28:26;;;;;;;;;12.75;9.00;;;;;13.65;64.21;100307.13;4943891;28;45398;-60
2021/10/29 04:30:52;;;;;;;;;11.00;9.25;;;;;13.66;64.12;100301.69;4944026;28;45342;-60
2021/10/29 04:33:18;;;;;;;;;9.50;5.25;;;;;13.66;64.29;100301.69;4943850;28;45285;-61
2021/10/29 04:35:46;;;;;;;;;8.75;5.50;;;;;13.62;64.18;100297.63;4943801;28;45470;-60
2021/10/29 04:38:13;;;;;;;;;9.50;7.00;;;;;13.63;64.18;100301.13;4943555;28;45300;-61
2021/10/29 04:40:41;;;;;;;;;7.00;7.00;;;;;13.63;64.32;100291.38;4943654;28;45271;-60
2021/10/29 04:43:09;;;;;;;;;10.25;10.00;;;;;13.62;64.26;100294.16;4943911;28;45528;-60
2021/10/29 04:45:35;;;;;;;;;12.75;10.75;;;;;13.61;64.41;100301.25;4943692;28;46269;-60
2021/10/29 04:48:01;;;;;;;;;7.50;5.50;;;;;13.61;64.30;100298.59;4942308;28;45251;-60
2021/10/29 04:50:27;;;;;;;;;12.00;10.75;;;;;13.60;64.41;100296.91;4943605;28;45300;-60
2021/10/29 04:52:53;;;;;;;;;11.75;10.00;;;;;13.61;64.46;100290.66;4943657;28;45246;-60
2021/10/29 04:55:19;;;;;;;;;13.00;11.00;;;;;13.62;64.43;100296.78;4943455;28;45324;-60
2021/10/29 04:57:45;;;;;;;;;10.75;9.50;;;;;13.60;64.49;100293.44;4943471;28;45343;-60
2021/10/29 05:00:11;;;;;;;;;8.25;6.50;;;;;13.62;64.54;100289.69;4943466;28;45292;-60
2021/10/29 05:02:36;;;;;;;;;8.50;8.00;;;;;13.61;64.57;100282.72;4943656;28;45263;-60
2021/10/29 05:05:07;;;;;;;;;12.50;12.25;;;;;13.63;64.72;100275.50;4943088;28;45352;-60
2021/10/29 05:07:33;;;;;;;;;13.00;10.50;;;;;13.63;64.52;100279.94;4941995;28;45376;-60
2021/10/29 05:09:59;;;;;;;;;10.25;10.25;;;;;13.62;64.87;100284.41;4943261;28;45328;-61
2021/10/29 05:12:26;;;;;;;;;14.00;10.00;;;;;13.63;64.68;100266.72;4943542;28;45611;-60
2021/10/29 05:14:52;;;;;;;;;13.50;9.50;;;;;13.64;64.51;100268.38;4943054;28;46314;-60
2021/10/29 05:17:18;;;;;;;;;18.00;10.75;;;;;13.64;64.72;100271.03;4942758;28;45392;-60
2021/10/29 05:19:43;;;;;;;;;11.75;10.00;;;;;13.64;64.82;100266.59;4942975;28;45399;-60
2021/10/29 05:22:09;;;;;;;;;12.75;9.00;;;;;13.63;64.79;100266.72;4943415;28;45444;-60
2021/10/29 05:24:34;;;;;;;;;11.75;11.00;;;;;13.61;64.72;100261.56;4942965;28;45456;-60
2021/10/29 05:27:00;;;;;;;;;12.00;11.00;;;;;13.62;64.63;100260.59;4943017;28;45239;-59
2021/10/29 05:29:25;;;;;;;;;12.75;9.25;;;;;13.62;64.67;100254.44;4943226;28;45334;-60
2021/10/29 05:31:52;;;;;;;;;12.25;9.50;;;;;13.62;64.83;100254.44;4943311;28;45172;-60
2021/10/29 05:34:18;;;;;;;;;14.75;12.00;;;;;13.65;64.94;100256.84;4942644;28;46359;-60
2021/10/29 05:36:44;;;;;;;;;14.25;11.00;;;;;13.69;64.84;100260.94;4942757;28;45748;-60
2021/10/29 05:39:10;;;;;;;;;8.25;8.00;;;;;13.71;64.64;100253.72;4942768;28;45176;-60
2021/10/29 05:41:36;;;;;;;;;10.00;7.75;;;;;13.70;64.74;100246.75;4943148;28;45342;-60
2021/10/29 05:44:02;;;;;;;;;15.00;9.75;;;;;13.72;64.65;100246.59;4957653;28;46202;-62
2021/10/29 05:46:30;;;;;;;;;9.75;9.25;;;;;13.71;64.67;100252.88;4942750;28;45304;-60
2021/10/29 05:48:56;;;;;;;;;12.75;11.00;;;;;13.68;64.93;100246.88;4942600;28;45254;-59
2021/10/29 05:51:23;;;;;;;;;15.75;13.00;;;;;13.71;64.98;100247.56;4943320;28;45512;-60
2021/10/29 05:56:15;;;;;;;;;7.00;7.00;;;;;13.69;64.53;100237.13;4942607;28;45236;-60
2021/10/29 05:58:40;;;;;;;;;10.00;9.25;;;;;13.70;64.76;100244.09;4942803;28;45376;-60
2021/10/29 06:01:06;;;;;;;;;13.75;10.25;;;;;13.70;64.78;100230.84;4942792;28;45378;-60
2021/10/29 06:03:31;;;;;;;;;12.00;10.25;;;;;13.68;65.03;100224.84;4942385;28;46191;-59
2021/10/29 06:05:57;;;;;;;;;12.75;9.75;;;;;13.70;64.66;100236.16;4942521;28;45430;-59
2021/10/29 06:08:23;;;;;;;;;13.75;10.00;;;;;13.70;64.81;100233.50;4942341;28;45400;-60
2021/10/29 06:10:49;;;;;;;;;13.75;10.25;;;;;13.68;64.97;100232.78;4942643;28;45334;-60
2021/10/29 06:13:14;;;;;;;;;14.50;10.75;;;;;13.65;64.87;100219.78;4941940;28;45346;-60
2021/10/29 06:15:44;;;;;;;;;21.25;14.75;;;;;13.63;64.77;100222.56;4942447;28;45311;-59
2021/10/29 06:18:12;;;;;;;;;10.50;9.75;;;;;13.64;64.83;100229.53;4942374;28;45359;-60
2021/10/29 06:20:39;;;;;;;;;11.50;9.25;;;;;13.64;64.94;100218.94;4942168;28;45512;-59
2021/10/29 06:23:07;;;;;;;;;13.25;11.00;;;;;13.64;64.77;100221.59;4942025;28;46249;-59
2021/10/29 06:25:41;;;;;;;;;12.50;11.00;;;;;13.66;64.85;100222.31;4942335;28;45264;-61
2021/10/29 06:30:51;;;;;;;;;9.25;8.75;;;;;13.69;64.84;100216.78;4945327;28;45216;-60
2021/10/29 06:33:20;;;;;;;;;10.00;9.00;;;;;13.71;64.89;100216.66;4945478;28;45276;-60
2021/10/29 06:35:46;;;;;;;;;9.75;9.25;;;;;13.73;64.97;100221.81;4945415;28;45436;-60
2021/10/29 06:38:12;;;;;;;;;10.25;9.25;;;;;13.75;64.78;100226.03;4945615;28;45363;-59
2021/10/29 06:40:43;;;;;;;;;13.75;10.25;;;;;13.79;64.70;100224.81;4945407;28;45307;-59
2021/10/29 06:43:23;;;;;;;;;13.25;11.00;;;;;13.83;64.70;100214.84;4945478;28;46174;-59
2021/10/29 06:48:33;;;;;;;;;11.75;9.50;;;;;13.90;64.47;100216.84;4945440;28;45330;-60
2021/10/29 06:59:18;;;;;;;;;10.75;9.00;;;;;14.00;64.60;100234.66;4945068;28;45289;-60
2021/10/29 07:05:01;;;;;;;;;9.50;8.75;;;;;14.06;64.50;100227.03;4944869;28;45275;-60
2021/10/29 07:39:58;;;;;;;;;13.75;11.25;;;;;14.31;63.82;100211.78;4945136;28;45355;-60
2021/10/29 07:40:08;;;;;;;;;10.25;8.75;;;;;14.77;62.84;100209.63;4944178;28;45339;-58
2021/10/29 07:42:44;;;;;;;;;16.00;15.00;;;;;14.83;62.62;100215.34;4944651;28;45378;-60
2021/10/29 07:45:11;;;;;;;;;13.00;7.75;;;;;14.86;62.35;100223.91;4944668;28;45415;-60
2021/10/29 07:47:38;;;;;;;;;10.75;6.50;;;;;14.88;62.74;100227.25;4944419;28;46158;-60
2021/10/29 07:50:06;;;;;;;;;8.00;4.75;;;;;14.93;62.24;100221.53;4944553;28;45226;-60
2021/10/29 07:52:32;;;;;;;;;10.25;8.25;;;;;14.96;61.97;100219.47;4944464;28;45323;-60
2021/10/29 07:54:57;;;;;;;;;9.50;7.00;;;;;14.99;62.02;100227.16;4944412;28;45573;-60
2021/10/29 07:57:24;;;;;;;;;7.75;4.75;;;;;15.04;61.87;100230.25;4944132;28;46096;-60
2021/10/29 07:59:51;;;;;;;;;7.00;5.75;;;;;15.07;61.92;100230.00;4944571;28;45366;-60
2021/10/29 08:02:18;;;;;;;;;5.75;5.75;;;;;15.08;61.97;100223.72;4944169;28;45462;-60
2021/10/29 08:04:44;;;;;;;;;11.75;7.00;;;;;15.12;62.06;100224.31;4944330;28;45570;-60
2021/10/29 08:07:10;;;;;;;;;6.25;4.75;;;;;15.16;61.68;100235.47;4944114;28;46578;-60
2021/10/29 08:09:37;;;;;;;;;6.25;4.25;;;;;15.21;61.55;100235.94;4944165;28;45322;-60
2021/10/29 08:12:02;;;;;;;;;4.50;4.50;;;;;15.23;61.73;100239.28;4942885;28;45319;-60
2021/10/29 08:14:28;;;;;;;;;6.50;6.50;;;;;15.26;61.33;100239.88;4944454;28;45330;-61
2021/10/29 08:16:53;;;;;;;;;8.75;4.50;;;;;15.28;61.36;100250.34;4943998;28;46049;-63
2021/10/29 08:19:40;;;;;;;;;6.50;6.00;;;;;15.29;61.33;100238.75;4943907;28;45343;-61
2021/10/29 08:22:05;;;;;;;;;7.25;6.00;;;;;15.31;61.15;100239.44;4944208;28;45227;-60
2021/10/29 08:24:32;;;;;;;;;8.75;6.25;;;;;15.31;61.25;100245.59;4944001;28;45364;-60
2021/10/29 08:26:58;;;;;;;;;11.00;6.50;;;;;15.32;61.21;100243.78;4943701;28;45257;-59
2021/10/29 08:29:25;;;;;;;;;10.00;6.00;;;;;15.34;61.62;100249.81;4943856;28;45248;-60
2021/10/29 08:31:52;;;;;;;;;7.25;6.25;;;;;15.35;61.24;100243.53;4944164;28;45516;-59
2021/10/29 08:34:24;;;;;;;;;8.50;4.75;;;;;15.38;61.46;100240.59;4943906;28;45538;-59
2021/10/29 08:36:57;;;;;;;;;7.00;4.00;;;;;15.41;61.08;100244.81;4943813;28;45355;-60
2021/10/29 08:39:26;;;;;;;;;5.00;4.25;;;;;15.43;61.21;100246.38;4943382;28;45255;-60
2021/10/29 08:41:52;;;;;;;;;7.75;7.00;;;;;15.45;61.13;100238.25;4943580;28;45258;-59
2021/10/29 08:44:18;;;;;;;;;9.25;6.00;;;;;15.47;61.18;100252.22;4943597;28;45327;-59
2021/10/29 08:46:44;;;;;;;;;8.25;7.00;;;;;15.50;61.10;100252.81;4943608;28;45422;-59
2021/10/29 08:49:11;;;;;;;;;6.50;5.25;;;;;15.51;61.16;100251.84;4943360;28;45332;-60
2021/10/29 08:51:37;;;;;;;;;6.50;6.25;;;;;15.54;60.67;100243.59;4943468;28;45255;-59
2021/10/29 08:54:04;;;;;;;;;5.75;4.00;;;;;15.57;60.78;100239.84;4941839;28;45627;-61
2021/10/29 08:56:30;;;;;;;;;16.75;11.25;;;;;15.58;60.97;100239.72;4958392;28;46943;-60
2021/10/29 08:59:16;;;;;;;;;8.00;6.75;;;;;15.61;60.69;100242.13;4943239;28;45464;-59
2021/10/29 09:01:58;;;;;;;;;6.00;5.75;;;;;15.63;60.92;100244.63;4943519;28;45327;-59
2021/10/29 09:32:00;;;;;;;;;7.75;7.00;;;;;15.87;60.79;100266.34;4942922;28;45332;-60
2021/10/29 09:34:26;;;;;;;;;6.75;5.00;;;;;15.91;60.54;100267.78;4957532;28;45239;-60
2021/10/29 09:36:52;;;;;;;;;5.00;5.00;;;;;15.96;60.64;100261.19;4942924;28;45478;-61
2021/10/29 09:39:21;;;;;;;;;7.00;5.75;;;;;16.01;60.72;100258.97;4942432;28;45471;-60
2021/10/29 09:42:01;;;;;;;;;12.75;6.00;;;;;16.05;60.53;100263.06;4942582;28;45263;-60
2021/10/29 09:44:47;;;;;;;;;6.75;6.50;;;;;16.08;60.83;100257.44;4942850;28;45232;-60
2021/10/29 09:47:19;;;;;;;;;9.00;6.00;;;;;16.12;60.65;100257.06;4942780;28;45263;-60
2021/10/29 09:55:14;;;;;;;;;8.75;6.00;;;;;16.26;60.34;100249.63;4942733;28;45338;-59
2021/10/29 09:57:39;;;;;;;;;4.75;4.00;;;;;16.34;60.54;100257.75;4942670;28;45337;-59
2021/10/29 10:00:09;;;;;;;;;3.75;3.75;;;;;16.37;60.36;100260.97;4942231;28;45255;-59
2021/10/29 10:02:34;;;;;;;;;8.75;6.50;;;;;16.43;60.33;100268.41;4942290;28;45184;-60
2021/10/29 10:05:04;;;;;;;;;9.00;7.00;;;;;16.48;60.58;100271.47;4942266;28;45493;-59
2021/10/29 10:07:35;;;;;;;;;5.75;5.25;;;;;16.51;60.54;100269.50;4942443;28;45586;-59
2021/10/29 10:10:04;;;;;;;;;5.00;5.00;;;;;16.52;60.81;100273.84;4942251;28;45356;-61
2021/10/29 10:12:35;;;;;;;;;9.25;6.00;;;;;16.53;61.56;100280.84;4942393;28;45239;-60
2021/10/29 10:15:04;;;;;;;;;11.75;5.25;;;;;16.50;61.54;100281.94;4940901;28;45357;-60
2021/10/29 10:17:30;;;;;;;;;7.00;6.00;;;;;16.45;61.74;100285.03;4942360;28;45597;-60
2021/10/29 10:19:58;;;;;;;;;9.75;7.00;;;;;16.40;62.35;100286.44;4940552;28;45303;-61
2021/10/29 10:22:26;;;;;;;;;8.75;6.00;;;;;16.39;62.78;100282.09;4942233;28;45324;-61
2021/10/29 10:24:59;;;;;;;;;7.50;5.75;;;;;16.39;63.11;100285.59;4941445;28;45571;-61
2021/10/29 10:48:30;;;;;;;;;6.25;6.25;;;;;16.05;65.83;100289.63;4942210;28;45268;-60
2021/10/29 10:54:28;;;;;;;;;9.50;7.25;;;;;15.97;66.43;100287.66;4941612;28;45371;-60
2021/10/29 11:11:19;;;;;;;;;17.75;10.75;;;;;15.72;68.63;100293.44;4941889;28;45271;-59
2021/10/29 11:13:44;;;;;;;;;14.25;13.25;;;;;15.70;69.00;100285.59;4941548;28;46237;-60
2021/10/29 11:16:37;;;;;;;;;18.75;16.00;;;;;15.70;69.67;100280.28;4942986;28;45272;-60
2021/10/29 11:19:09;;;;;;;;;17.25;16.00;;;;;15.69;69.28;100281.28;4943951;28;45351;-59
2021/10/29 11:21:36;;;;;;;;;22.00;17.50;;;;;15.70;69.47;100282.94;4944602;28;45238;-60
2021/10/29 11:24:07;;;;;;;;;14.00;13.00;;;;;15.67;69.31;100269.94;4944395;28;46225;-59
2021/10/29 11:26:47;;;;;;;;;12.50;10.50;;;;;15.69;69.69;100273.31;4944362;28;45272;-59
2021/10/29 11:29:13;;;;;;;;;13.00;12.00;;;;;15.69;70.17;100275.13;4944648;28;45303;-59
2021/10/29 11:31:45;;;;;;;;;12.50;10.25;;;;;15.68;69.99;100271.63;4944629;28;45287;-59
2021/10/29 11:34:14;;;;;;;;;12.25;9.75;;;;;15.66;70.25;100264.78;4944391;28;45469;-59
2021/10/29 11:36:50;;;;;;;;;14.75;11.75;;;;;15.66;69.93;100268.28;4944309;28;45426;-59
2021/10/29 11:39:18;;;;;;;;;13.00;11.50;;;;;15.66;70.21;100268.28;4944574;28;45246;-59
2021/10/29 11:41:47;;;;;;;;;8.75;8.00;;;;;15.67;70.25;100259.31;4944675;28;45268;-59
2021/10/29 11:44:25;;;;;;;;;13.25;11.00;;;;;15.71;69.94;100254.56;4944470;28;45405;-59
2021/10/29 11:46:55;;;;;;;;;12.00;10.75;;;;;15.73;70.18;100248.16;4944815;28;45424;-60
2021/10/29 11:49:33;;;;;;;;;15.25;9.25;;;;;15.74;70.57;100251.66;4944276;28;45342;-61
2021/10/29 11:52:03;;;;;;;;;11.25;10.25;;;;;15.74;70.34;100243.69;4944746;28;45461;-60
2021/10/29 11:54:34;;;;;;;;;9.00;8.00;;;;;15.73;70.57;100234.06;4944135;28;45934;-59
2021/10/29 12:07:31;;;;;;;;;8.25;8.25;;;;;15.77;70.59;100244.25;4944345;28;45172;-61
2021/10/29 12:10:10;;;;;;;;;12.00;9.00;;;;;15.78;70.79;100245.09;4943868;28;45310;-60
2021/10/29 12:12:41;;;;;;;;;14.25;9.00;;;;;15.79;70.64;100244.94;4944113;28;45331;-60
2021/10/29 12:15:17;;;;;;;;;8.00;8.00;;;;;15.83;70.84;100238.41;4944004;28;45322;-60
2021/10/29 12:20:21;;;;;;;;;11.50;7.75;;;;;15.88;70.50;100232.69;4943297;28;45340;-61
2021/10/29 12:22:52;;;;;;;;;14.75;9.25;;;;;15.95;70.24;100241.75;4943675;28;45503;-61
2021/10/29 12:25:34;;;;;;;;;12.25;10.50;;;;;16.05;70.58;100232.00;4943750;28;45290;-60
2021/10/29 12:28:07;;;;;;;;;11.50;10.75;;;;;16.15;70.25;100224.03;4942803;28;45717;-60
2021/10/29 12:51:50;;;;;;;;;12.25;7.25;;;;;16.67;68.75;100224.59;4943790;28;45441;-60
2021/10/29 13:03:45;;;;;;;;;9.75;8.75;;;;;16.67;68.32;100179.38;4943056;28;45251;-60
2021/10/29 13:06:16;;;;;;;;;10.00;9.25;;;;;16.72;67.99;100182.44;4943312;28;45150;-60
2021/10/29 13:08:46;;;;;;;;;9.25;8.75;;;;;16.74;68.00;100186.63;4942736;28;45362;-60
2021/10/29 13:11:14;;;;;;;;;6.75;6.75;;;;;16.77;67.89;100193.50;4942612;28;45235;-60
2021/10/29 13:13:53;;;;;;;;;10.50;9.75;;;;;16.78;68.21;100199.66;4942925;28;45268;-60
2021/10/29 13:16:19;;;;;;;;;10.75;10.00;;;;;16.77;67.87;100212.13;4943151;28;45508;-60
2021/10/29 13:35:19;;;;;;;;;9.50;7.50;;;;;16.70;67.68;100219.00;4942649;28;45543;-59
2021/10/29 13:37:58;;;;;;;;;8.25;7.00;;;;;16.69;67.70;100215.50;4942690;28;45244;-61
2021/10/29 13:51:35;;;;;;;;;9.50;8.00;;;;;16.71;67.37;100218.00;4942842;28;45916;-59
2021/10/29 13:56:55;;;;;;;;;9.50;7.25;;;;;16.69;67.44;100223.47;4942777;28;45335;-59
2021/10/29 14:29:05;;;;;;;;;8.75;7.75;;;;;16.45;68.45;100261.13;4942403;28;45238;-60
2021/10/29 14:31:42;;;;;;;;;8.00;7.00;;;;;16.39;68.28;100258.19;4942234;28;45176;-60
2021/10/29 14:37:22;;;;;;;;;8.50;6.75;;;;;16.35;69.15;100249.66;4941889;28;45345;-60
2021/10/29 14:39:40;;;;;;;;;8.50;8.00;;;;;16.32;69.31;100255.22;4944047;28;45487;-60
2021/10/29 14:42:15;;;;;;;;;8.00;7.50;;;;;16.31;69.69;100252.72;4942033;28;46358;-59
2021/10/29 14:49:55;;;;;;;;;9.00;8.25;;;;;16.16;70.57;100269.06;4941924;28;45306;-60
2021/10/29 15:28:24;;;;;;;;;12.00;9.00;;;;;15.87;72.82;100263.69;4944721;28;45978;-61
2021/10/29 15:33:40;;;;;;;;;8.00;8.00;;;;;15.81;73.08;100256.28;4944589;28;45326;-61
2021/10/29 15:41:39;;;;;;;;;6.00;6.00;;;;;15.81;73.44;100237.72;4944418;28;45275;-60
2021/10/29 15:44:08;;;;;;;;;8.50;7.25;;;;;15.84;73.50;100245.38;4944621;28;45311;-60
2021/10/29 15:46:44;;;;;;;;;9.25;9.25;;;;;15.85;73.68;100252.38;4944680;28;46309;-60
2021/10/29 15:51:49;;;;;;;;;11.00;9.00;;;;;15.86;73.49;100258.53;4944636;28;45353;-61
2021/10/29 15:54:16;;;;;;;;;7.50;6.00;;;;;15.87;72.92;100270.81;4944461;28;45283;-59
2021/10/29 15:56:46;;;;;;;;;7.50;7.50;;;;;15.89;73.28;100264.44;4944548;28;45228;-60
2021/10/29 15:59:19;;;;;;;;;9.00;7.75;;;;;15.89;73.10;100264.44;4944232;28;46280;-60
2021/10/29 16:17:55;;;;;;;;;10.75;10.50;;;;;15.83;73.58;100264.13;4944440;28;45160;-61
2021/10/29 16:20:22;;;;;;;;;14.50;10.50;;;;;15.80;73.85;100267.03;4943502;28;46026;-61